Hovedside
METAR-TAF:

METAR-TAF

Lufthavner :

Sultan Aji Muhamad Sulaiman lufthavn

Balikpapan, Indonesia

breddegrad: 01-16-06S, lengdegrad: 116-53-40E, høyde over havet: 4 m

Gjeldene værobservasjon

Denne rapporten ble laget for 33 minutter siden, klokken 00:30 UTC
Vind 3 kt fra Sørvest
Temperatur 27°C
Luftfuktighet 94%
Trykk 1010 hPa
Sikt 10 km eller mer
Spredte skyer i en høyde av 1800 ft

METAR: WALL 210030Z 23003KT 9999 SCT018 27/26 Q1010 NOSIG

Tid: 08:03 (01:03 UTC)

Varsel

Denne rapporten ble laget for 2 timer og 3 minutter siden, klokken 23:00 UTC
Varsel gyldig fra 21. klokken 00 UTC til 22. klokken 06 UTC
Vind 5 kt fra Vest
Sikt: 9000 m
Få skyer i en høyde av 2000 ft

TAF: WALL 202300Z 2100/2206 27005KT 9000 FEW020

Værobservasjoner og værvarsel for over 4000 flyplasser (METAR- og TAF-rapporter).

Tilgjengelige stasjoner er representert av de røde og gule prikkene på kartet.

Hold musepekeren over prikken for å se navnet på stasjonen.

Klikk så for å se værobservasjoner og -varsler.

For å forandre kartet kan du klikke på den grønne knappen med svart kryss for å zoome inn, på den grønne knappen med strek for å zoome ut, eller på de grønne pilene for å se tilstøtende kart.


METAR-TAF: